Time;durP1;ratioP1;P1;durP2;ratioP2;P2;SDS_P1;SDS_P2;PMS_P1;PMS_P2;Temp;Humidity;BMP_temperature;BMP_pressure;BME280_temperature;BME280_humidity;BME280_pressure;Samples;Min_cycle;Max_cycle;Signal;HPM_P1;HPM_P2
2023/08/06 00:00:24;;;;;;;17.63;8.65;;;23.70;85.50;;;;;;5077602;28;20020;-87
2023/08/06 00:02:50;;;;;;;15.52;8.63;;;23.70;85.60;;;;;;5056450;28;20118;-88
2023/08/06 00:05:21;;;;;;;15.48;9.25;;;23.70;85.30;;;;;;5056057;28;20024;-85
2023/08/06 00:07:50;;;;;;;16.02;8.00;;;23.70;85.70;;;;;;5071626;28;20085;-87
2023/08/06 00:10:16;;;;;;;11.40;8.15;;;23.60;85.40;;;;;;5063073;28;20033;-86
2023/08/06 00:12:43;;;;;;;11.68;9.15;;;23.60;85.70;;;;;;5048147;28;20036;-87
2023/08/06 00:15:09;;;;;;;11.00;8.93;;;23.60;85.40;;;;;;5067445;28;20035;-87
2023/08/06 00:17:35;;;;;;;10.95;7.30;;;23.60;85.60;;;;;;5059545;28;20028;-89
2023/08/06 00:20:04;;;;;;;10.02;7.70;;;23.60;85.00;;;;;;5047939;28;20037;-88
2023/08/06 00:22:36;;;;;;;15.30;8.63;;;23.60;85.40;;;;;;5076549;28;20025;-86
2023/08/06 00:25:03;;;;;;;15.93;8.63;;;23.60;85.40;;;;;;5079540;28;20044;-86
2023/08/06 00:27:29;;;;;;;11.82;7.75;;;23.60;85.90;;;;;;5065637;28;20029;-89
2023/08/06 00:29:55;;;;;;;14.77;8.30;;;23.60;85.50;;;;;;5076327;28;20522;-91
2023/08/06 00:32:21;;;;;;;10.75;8.05;;;23.60;85.20;;;;;;5067955;28;20029;-90
2023/08/06 00:34:49;;;;;;;14.73;8.60;;;23.60;85.60;;;;;;5074182;28;20084;-88
2023/08/06 00:37:17;;;;;;;13.63;8.50;;;23.60;85.90;;;;;;5069616;28;20032;-90
2023/08/06 00:39:44;;;;;;;14.75;9.23;;;23.60;85.90;;;;;;5049071;28;20020;-89
2023/08/06 00:42:13;;;;;;;15.18;9.23;;;23.50;86.10;;;;;;5060210;28;20132;-89
2023/08/06 00:44:40;;;;;;;17.23;10.27;;;23.50;86.40;;;;;;5066505;28;20033;-90
2023/08/06 00:47:07;;;;;;;14.20;8.30;;;23.50;86.30;;;;;;5080799;28;20013;-90
2023/08/06 00:49:33;;;;;;;;;;;23.50;86.50;;;;;;5058361;28;20056;-85
2023/08/06 00:51:59;;;;;;;19.50;10.00;;;23.50;85.90;;;;;;5066085;28;19990;-86
2023/08/06 00:54:27;;;;;;;13.35;9.77;;;23.40;86.90;;;;;;5077317;28;20024;-86
2023/08/06 00:56:53;;;;;;;17.80;9.98;;;23.40;87.40;;;;;;5076166;28;20048;-86
2023/08/06 00:59:19;;;;;;;23.48;10.43;;;23.40;87.40;;;;;;5077714;28;20496;-87
2023/08/06 01:01:46;;;;;;;14.82;10.32;;;23.40;87.70;;;;;;5068057;28;20029;-85
2023/08/06 01:04:12;;;;;;;;;;;23.40;87.80;;;;;;5084532;28;20020;-84
2023/08/06 01:06:52;;;;;;;17.73;10.02;;;23.30;87.00;;;;;;5068472;28;20011;-86
2023/08/06 01:09:43;;;;;;;11.77;9.27;;;23.30;87.90;;;;;;5073101;28;20020;-86
2023/08/06 01:12:24;;;;;;;19.88;10.32;;;23.30;88.20;;;;;;5034884;28;20088;-85
2023/08/06 01:15:07;;;;;;;17.27;11.05;;;23.20;88.50;;;;;;5057269;28;20079;-87
2023/08/06 01:17:33;;;;;;;13.77;9.48;;;23.20;88.10;;;;;;5056547;28;20021;-88
2023/08/06 01:19:59;;;;;;;14.32;10.40;;;23.20;88.70;;;;;;5064818;28;20017;-87
2023/08/06 01:22:25;;;;;;;19.95;9.93;;;23.20;88.90;;;;;;5050483;28;20547;-86
2023/08/06 01:24:52;;;;;;;17.40;9.85;;;23.20;89.30;;;;;;5027535;28;20049;-87
2023/08/06 01:27:23;;;;;;;20.97;12.00;;;23.20;89.50;;;;;;5043915;28;20017;-88
2023/08/06 01:29:58;;;;;;;11.55;9.05;;;23.10;89.40;;;;;;5025657;28;20277;-88
2023/08/06 01:32:25;;;;;;;16.52;10.40;;;23.10;89.80;;;;;;5037637;28;20375;-87
2023/08/06 01:34:53;;;;;;;18.58;10.43;;;23.10;89.80;;;;;;5042764;28;20025;-88
2023/08/06 01:37:19;;;;;;;17.42;9.18;;;23.10;89.80;;;;;;5030615;28;20052;-88
2023/08/06 01:39:45;;;;;;;18.50;10.25;;;23.10;90.00;;;;;;5033539;28;20443;-89
2023/08/06 01:42:11;;;;;;;13.90;10.05;;;23.10;90.00;;;;;;5037625;28;20032;-90
2023/08/06 01:44:36;;;;;;;13.82;10.13;;;23.10;90.10;;;;;;5033790;28;20017;-90
2023/08/06 01:47:02;;;;;;;15.85;9.52;;;23.00;90.10;;;;;;5024079;28;20033;-87
2023/08/06 01:49:29;;;;;;;14.27;9.90;;;23.00;90.20;;;;;;5013631;28;20379;-90
2023/08/06 01:51:54;;;;;;;13.05;10.20;;;23.00;90.10;;;;;;5046510;28;20029;-87
2023/08/06 01:54:20;;;;;;;13.73;8.73;;;23.00;90.10;;;;;;5053334;28;20024;-88
2023/08/06 01:56:46;;;;;;;15.43;9.82;;;23.00;90.20;;;;;;5046552;28;20028;-90
2023/08/06 01:59:12;;;;;;;14.30;10.18;;;23.00;90.30;;;;;;5039737;28;20398;-89
2023/08/06 02:01:38;;;;;;;12.27;9.20;;;23.00;90.30;;;;;;5026466;28;20021;-87
2023/08/06 02:04:04;;;;;;;18.67;9.95;;;23.00;90.60;;;;;;5026241;28;20040;-90
2023/08/06 02:06:30;;;;;;;18.90;10.70;;;23.00;90.40;;;;;;5025991;28;20085;-92
2023/08/06 02:08:56;;;;;;;16.80;9.40;;;23.00;90.20;;;;;;5021300;28;20477;-91
2023/08/06 02:11:21;;;;;;;15.68;10.55;;;23.00;90.40;;;;;;5045077;28;20067;-89
2023/08/06 02:13:47;;;;;;;12.30;9.77;;;23.00;90.50;;;;;;5052147;28;20024;-90
2023/08/06 02:16:13;;;;;;;14.90;9.93;;;23.00;90.50;;;;;;5056282;28;20037;-88
2023/08/06 02:18:39;;;;;;;16.85;10.00;;;23.00;90.40;;;;;;5062447;28;20009;-88
2023/08/06 02:21:05;;;;;;;18.63;9.82;;;23.00;90.50;;;;;;5049050;28;20102;-90
2023/08/06 02:23:31;;;;;;;17.60;8.70;;;23.10;90.20;;;;;;5044415;28;20051;-90
2023/08/06 02:26:02;;;;;;;9.00;8.10;;;23.10;90.30;;;;;;5064027;28;20025;-89
2023/08/06 02:28:29;;;;;;;11.90;8.45;;;23.10;90.30;;;;;;5074275;28;20154;-89
2023/08/06 02:30:55;;;;;;;13.60;8.82;;;23.10;90.30;;;;;;5073812;28;20008;-89
2023/08/06 02:33:23;;;;;;;13.27;9.43;;;23.20;90.20;;;;;;5079029;28;20033;-88
2023/08/06 02:35:49;;;;;;;;;;;23.20;90.00;;;;;;5067297;28;20105;-90
2023/08/06 02:38:14;;;;;;;18.50;9.23;;;23.30;89.60;;;;;;5049309;28;19935;-88
2023/08/06 02:40:46;;;;;;;19.10;9.23;;;23.30;90.10;;;;;;5054583;28;20033;-88
2023/08/06 02:43:12;;;;;;;16.67;9.18;;;23.30;90.00;;;;;;5059244;28;20044;-88
2023/08/06 02:45:38;;;;;;;18.42;10.07;;;23.40;89.80;;;;;;5043568;28;20088;-87
2023/08/06 02:48:04;;;;;;;14.20;9.30;;;23.50;89.50;;;;;;5046328;28;20513;-89
2023/08/06 02:50:30;;;;;;;16.60;9.38;;;23.60;89.50;;;;;;5071919;28;20033;-89
2023/08/06 02:52:55;;;;;;;13.80;8.73;;;23.70;89.10;;;;;;5077145;28;20054;-90
2023/08/06 02:55:21;;;;;;;20.55;9.40;;;23.70;89.00;;;;;;5073413;28;20025;-83
2023/08/06 02:57:49;;;;;;;17.40;9.65;;;23.80;88.70;;;;;;5068832;28;20025;-83
2023/08/06 03:00:16;;;;;;;;;;;23.90;87.40;;;;;;5070169;28;20059;-91
2023/08/06 03:02:42;;;;;;;;;;;24.00;87.40;;;;;;5066914;28;19943;-91
2023/08/06 03:05:08;;;;;;;13.75;9.45;;;24.00;87.30;;;;;;5071066;28;19912;-90
2023/08/06 03:07:36;;;;;;;13.40;9.80;;;24.00;87.20;;;;;;5068527;28;20078;-91
2023/08/06 03:10:02;;;;;;;14.68;9.60;;;24.10;86.70;;;;;;5061097;28;20037;-92
2023/08/06 03:12:28;;;;;;;15.80;9.90;;;24.20;86.60;;;;;;5042271;28;20045;-92
2023/08/06 03:14:54;;;;;;;15.43;10.48;;;24.20;86.50;;;;;;5055219;28;20029;-90
2023/08/06 03:17:20;;;;;;;16.90;10.23;;;24.30;86.20;;;;;;5062776;28;20111;-92
2023/08/06 03:19:46;;;;;;;15.50;9.75;;;24.30;86.10;;;;;;5045069;28;20375;-93
2023/08/06 03:22:12;;;;;;;11.10;9.07;;;24.40;85.90;;;;;;5077336;28;20040;-91
2023/08/06 03:24:38;;;;;;;17.65;9.82;;;24.40;85.40;;;;;;5067224;28;20021;-91
2023/08/06 03:27:04;;;;;;;15.30;9.52;;;24.50;85.40;;;;;;5070623;28;20032;-90
2023/08/06 03:29:29;;;;;;;16.95;9.60;;;24.60;84.80;;;;;;5060826;28;20032;-92
2023/08/06 03:31:55;;;;;;;15.05;9.95;;;24.60;84.90;;;;;;5054662;28;20043;-86
2023/08/06 03:34:21;;;;;;;14.35;8.70;;;24.60;84.20;;;;;;5077425;28;20024;-83
2023/08/06 03:36:47;;;;;;;13.50;9.05;;;24.80;84.30;;;;;;5060609;28;20035;-91
2023/08/06 03:39:13;;;;;;;12.68;9.45;;;24.80;83.70;;;;;;5076954;28;20037;-92
2023/08/06 03:41:40;;;;;;;17.53;8.93;;;24.90;83.40;;;;;;5039988;28;20034;-90
2023/08/06 03:44:06;;;;;;;13.68;9.20;;;24.90;83.60;;;;;;5037417;28;20042;-88
2023/08/06 03:46:33;;;;;;;13.00;8.63;;;25.00;83.30;;;;;;5024292;28;20161;-91
2023/08/06 03:49:00;;;;;;;11.48;9.07;;;25.10;82.90;;;;;;5009941;28;20408;-90
2023/08/06 03:51:26;;;;;;;11.40;8.80;;;25.10;82.50;;;;;;5018674;28;20518;-89
2023/08/06 03:53:52;;;;;;;12.82;9.05;;;25.20;82.50;;;;;;5023568;28;20037;-90
2023/08/06 03:56:18;;;;;;;14.02;8.82;;;25.20;82.30;;;;;;5010174;28;20021;-90
2023/08/06 03:58:44;;;;;;;12.38;8.50;;;25.30;82.40;;;;;;5020509;28;20131;-91
2023/08/06 04:01:10;;;;;;;18.10;9.32;;;25.40;82.30;;;;;;5033984;28;20057;-90
2023/08/06 04:03:35;;;;;;;19.23;10.07;;;25.40;81.90;;;;;;5036759;28;20056;-87
2023/08/06 04:06:04;;;;;;;15.45;9.95;;;25.50;81.30;;;;;;5035007;28;20038;-88
2023/08/06 04:08:30;;;;;;;20.70;10.02;;;25.60;80.80;;;;;;5020578;28;20021;-92
2023/08/06 04:10:57;;;;;;;14.82;9.57;;;25.60;80.80;;;;;;5027098;28;20037;-91
2023/08/06 04:13:24;;;;;;;13.38;9.18;;;25.60;80.90;;;;;;5006087;28;20053;-92
2023/08/06 04:15:53;;;;;;;14.82;9.27;;;25.70;81.20;;;;;;5030537;28;20088;-91
2023/08/06 04:18:19;;;;;;;;;;;25.80;80.70;;;;;;5018102;28;20034;-86
2023/08/06 04:20:55;;;;;;;11.33;9.33;;;25.80;80.60;;;;;;5029924;28;19916;-90
2023/08/06 04:23:21;;;;;;;17.45;10.50;;;25.80;80.00;;;;;;5006972;28;20476;-91
2023/08/06 04:25:48;;;;;;;11.38;9.23;;;25.90;79.60;;;;;;4999760;28;20125;-91
2023/08/06 04:28:14;;;;;;;16.77;9.60;;;25.90;79.70;;;;;;4988356;28;20060;-89
2023/08/06 04:30:40;;;;;;;15.55;9.75;;;26.00;79.90;;;;;;4988197;28;20385;-90
2023/08/06 04:33:07;;;;;;;10.30;9.18;;;26.10;79.70;;;;;;5005253;28;20043;-90
2023/08/06 04:35:35;;;;;;;;;;;26.10;79.30;;;;;;5031991;28;20003;-90
2023/08/06 04:38:01;;;;;;;17.90;9.18;;;26.20;78.90;;;;;;5009984;28;19916;-91
2023/08/06 04:40:37;;;;;;;16.95;9.25;;;26.20;79.00;;;;;;5001931;28;20032;-89
2023/08/06 04:43:03;;;;;;;14.88;9.85;;;26.20;78.30;;;;;;4998948;28;20106;-85
2023/08/06 04:45:29;;;;;;;17.60;9.48;;;26.30;78.10;;;;;;5004582;28;20012;-92
2023/08/06 04:47:55;;;;;;;12.02;8.43;;;26.40;77.90;;;;;;5018770;28;20026;-91
2023/08/06 04:50:21;;;;;;;16.95;9.32;;;26.50;77.80;;;;;;5027950;28;20104;-90
2023/08/06 04:52:48;;;;;;;14.20;8.63;;;26.50;78.20;;;;;;5032837;28;20068;-91
2023/08/06 04:55:14;;;;;;;12.65;8.18;;;26.60;78.30;;;;;;5062877;28;20025;-93
2023/08/06 04:57:40;;;;;;;21.20;9.88;;;26.90;78.30;;;;;;5080773;28;20020;-89
2023/08/06 05:00:08;;;;;;;13.88;8.85;;;27.40;77.20;;;;;;5071850;28;20449;-90
2023/08/06 05:02:34;;;;;;;15.63;8.68;;;28.10;74.70;;;;;;5090303;28;20115;-86
2023/08/06 05:05:03;;;;;;;13.57;9.13;;;28.90;72.50;;;;;;5078755;28;20024;-86
2023/08/06 05:07:29;;;;;;;11.38;8.52;;;29.90;70.80;;;;;;5059909;28;20029;-88
2023/08/06 05:09:55;;;;;;;13.70;8.57;;;30.70;67.60;;;;;;5059368;28;20036;-90
2023/08/06 05:12:22;;;;;;;13.57;8.47;;;31.50;65.80;;;;;;5068747;28;20090;-89
2023/08/06 05:14:48;;;;;;;12.88;8.18;;;32.20;63.90;;;;;;5058534;28;20027;-91
2023/08/06 05:17:13;;;;;;;16.10;8.43;;;32.70;62.60;;;;;;5065338;28;20111;-89
2023/08/06 05:19:39;;;;;;;20.73;7.90;;;33.30;59.90;;;;;;5078289;28;20029;-91
2023/08/06 05:22:05;;;;;;;18.03;8.80;;;33.80;59.00;;;;;;5068514;28;20036;-92
2023/08/06 05:24:32;;;;;;;15.67;8.03;;;34.30;57.90;;;;;;5078662;28;20089;-90
2023/08/06 05:26:58;;;;;;;12.57;8.43;;;34.80;56.30;;;;;;5059973;28;20024;-90
2023/08/06 05:29:24;;;;;;;13.77;8.63;;;35.20;55.30;;;;;;5080987;28;20013;-83
2023/08/06 05:31:50;;;;;;;10.57;7.97;;;35.70;54.90;;;;;;5064278;28;20056;-90
2023/08/06 05:34:16;;;;;;;19.65;8.32;;;36.20;53.40;;;;;;5055661;28;20036;-88
2023/08/06 05:36:42;;;;;;;15.00;7.73;;;36.40;52.30;;;;;;5087425;28;20066;-88
2023/08/06 05:39:12;;;;;;;16.17;7.78;;;36.50;51.70;;;;;;5070300;28;20250;-89
2023/08/06 05:41:38;;;;;;;12.60;6.93;;;36.90;52.40;;;;;;5059936;28;20486;-89
2023/08/06 05:44:04;;;;;;;10.80;6.57;;;37.10;50.50;;;;;;5086176;28;20028;-90
2023/08/06 05:46:41;;;;;;;11.60;7.03;;;37.20;50.00;;;;;;5072351;28;20025;-89
2023/08/06 05:49:09;;;;;;;13.35;7.05;;;37.60;49.70;;;;;;5091881;28;20013;-90
2023/08/06 05:51:37;;;;;;;9.95;7.05;;;37.90;50.50;;;;;;5078013;28;20019;-90
2023/08/06 05:54:03;;;;;;;13.75;7.72;;;38.50;48.90;;;;;;5062008;28;20307;-89
2023/08/06 05:56:33;;;;;;;13.20;7.68;;;;;;;;;;5082993;28;20029;-89
2023/08/06 05:58:58;;;;;;;14.23;7.85;;;39.00;48.70;;;;;;5061330;28;20021;-90
2023/08/06 06:01:26;;;;;;;14.00;7.57;;;40.20;46.00;;;;;;5057387;28;20029;-88
2023/08/06 06:03:51;;;;;;;10.30;6.57;;;40.70;45.40;;;;;;5014321;28;20061;-90
2023/08/06 06:06:18;;;;;;;11.93;6.72;;;41.50;43.90;;;;;;4990927;28;20031;-91
2023/08/06 06:08:45;;;;;;;15.82;7.05;;;;;;;;;;4985966;28;20038;-91
2023/08/06 06:11:12;;;;;;;10.38;6.95;;;42.10;42.90;;;;;;4981866;28;20101;-92
2023/08/06 06:13:40;;;;;;;11.25;7.38;;;43.10;42.90;;;;;;4979169;28;20081;-91
2023/08/06 06:16:09;;;;;;;8.23;6.63;;;43.10;41.60;;;;;;4985533;28;20038;-90
2023/08/06 06:18:35;;;;;;;13.43;7.53;;;43.30;41.70;;;;;;4988524;28;20039;-90
2023/08/06 06:21:00;;;;;;;;;;;43.80;41.10;;;;;;4984793;28;20061;-88
2023/08/06 06:23:26;;;;;;;15.30;7.18;;;;;;;;;;4981498;28;19917;-88
2023/08/06 06:25:53;;;;;;;12.18;5.93;;;;;;;;;;4996011;28;20038;-90
2023/08/06 06:28:19;;;;;;;6.72;5.68;;;44.10;42.00;;;;;;4977490;28;20046;-90
2023/08/06 06:30:45;;;;;;;9.95;6.15;;;45.10;39.40;;;;;;4972673;28;20018;-90
2023/08/06 06:33:11;;;;;;;10.93;6.13;;;45.10;38.70;;;;;;4985709;28;20041;-89
2023/08/06 06:35:37;;;;;;;;;;;45.50;38.60;;;;;;5033117;28;20021;-90
2023/08/06 06:38:02;;;;;;;8.85;5.78;;;45.70;39.90;;;;;;5064373;28;19988;-89
2023/08/06 06:40:28;;;;;;;10.75;6.78;;;46.00;38.40;;;;;;5054462;28;20013;-87
2023/08/06 06:42:55;;;;;;;10.10;6.22;;;46.40;37.50;;;;;;5074366;28;20032;-89
2023/08/06 06:45:20;;;;;;;13.75;6.13;;;46.60;37.00;;;;;;5057026;28;20043;-89
2023/08/06 06:47:55;;;;;;;15.48;6.50;;;46.40;36.90;;;;;;5059154;28;20029;-90
2023/08/06 06:50:40;;;;;;;15.77;7.18;;;46.30;37.00;;;;;;5079342;28;20029;-90
2023/08/06 06:53:12;;;;;;;13.52;6.30;;;46.40;37.20;;;;;;5074714;28;20044;-87
2023/08/06 06:55:40;;;;;;;9.10;5.40;;;46.70;37.10;;;;;;5052199;28;20071;-89
2023/08/06 06:58:09;;;;;;;9.52;5.93;;;47.10;36.80;;;;;;5063701;28;20009;-90
2023/08/06 07:00:48;;;;;;;9.70;5.43;;;47.30;36.30;;;;;;5043183;28;20036;-88
2023/08/06 07:03:16;;;;;;;11.15;5.55;;;47.50;35.90;;;;;;5066574;28;20033;-90
2023/08/06 07:05:47;;;;;;;9.60;5.45;;;47.80;35.70;;;;;;5057478;28;20028;-90
2023/08/06 07:08:22;;;;;;;12.20;6.22;;;48.00;35.30;;;;;;5056246;28;20105;-88
2023/08/06 07:11:16;;;;;;;8.15;5.10;;;48.30;35.30;;;;;;5065179;28;20044;-90
2023/08/06 07:13:59;;;;;;;10.05;5.38;;;;;;;;;;5085920;28;20043;-91
2023/08/06 07:16:26;;;;;;;7.30;3.92;;;;;;;;;;5081568;28;20031;-83
2023/08/06 07:18:52;;;;;;;9.68;5.13;;;;;;;;;;5074156;28;20028;-88
2023/08/06 07:21:23;;;;;;;8.35;4.55;;;;;;;;;;5069757;28;20079;-87
2023/08/06 07:23:59;;;;;;;9.10;5.10;;;;;;;;;;5091311;28;20024;-91
2023/08/06 07:26:25;;;;;;;8.50;5.00;;;;;;;;;;5076522;28;20017;-89
2023/08/06 07:28:52;;;;;;;14.77;5.15;;;;;;;;;;5068012;28;20036;-91
2023/08/06 07:31:18;;;;;;;13.05;6.65;;;;;;;;;;5076322;28;20455;-90
2023/08/06 07:33:45;;;;;;;8.45;3.92;;;48.50;35.40;;;;;;5052062;28;20040;-91
2023/08/06 07:36:12;;;;;;;10.63;4.20;;;48.60;34.10;;;;;;5048968;28;20497;-91
2023/08/06 07:38:38;;;;;;;7.82;4.15;;;48.80;33.70;;;;;;5050490;28;20067;-91
2023/08/06 07:41:05;;;;;;;7.40;3.80;;;49.10;33.70;;;;;;5050132;28;20024;-93
2023/08/06 07:43:31;;;;;;;10.93;4.38;;;49.30;33.40;;;;;;5054146;28;20400;-90
2023/08/06 07:46:00;;;;;;;9.38;4.35;;;49.50;33.20;;;;;;5058576;28;20036;-92
2023/08/06 07:48:27;;;;;;;11.98;5.03;;;49.70;33.60;;;;;;5064851;28;20025;-89
2023/08/06 07:50:59;;;;;;;6.80;4.25;;;;;;;;;;5064033;28;20021;-89
2023/08/06 07:53:29;;;;;;;6.57;4.30;;;50.00;33.20;;;;;;5090685;28;20013;-89
2023/08/06 07:55:55;;;;;;;7.63;4.28;;;50.00;32.70;;;;;;5075850;28;20028;-92
2023/08/06 07:58:23;;;;;;;8.95;3.75;;;49.90;32.90;;;;;;5062662;28;20036;-92
2023/08/06 08:00:49;;;;;;;7.25;4.50;;;49.80;33.00;;;;;;5069915;28;20025;-91
2023/08/06 08:03:16;;;;;;;10.57;4.55;;;50.10;33.00;;;;;;5047689;28;20446;-90
2023/08/06 08:05:43;;;;;;;11.85;5.00;;;50.40;32.60;;;;;;5055970;28;20123;-91
2023/08/06 08:08:09;;;;;;;6.25;3.90;;;50.10;32.80;;;;;;5052678;28;20539;-91
2023/08/06 08:10:36;;;;;;;6.68;3.95;;;50.10;32.60;;;;;;5062423;28;20482;-89
2023/08/06 08:13:05;;;;;;;12.45;4.68;;;49.80;32.80;;;;;;5079309;28;20063;-89
2023/08/06 08:15:32;;;;;;;5.97;3.63;;;49.70;33.20;;;;;;5095593;28;20055;-92
2023/08/06 08:17:59;;;;;;;10.73;4.65;;;50.10;33.00;;;;;;5065480;28;20029;-92
2023/08/06 08:20:25;;;;;;;9.77;4.65;;;50.20;32.90;;;;;;5057107;28;20116;-88
2023/08/06 08:22:50;;;;;;;10.00;3.97;;;49.80;32.90;;;;;;5051341;28;20467;-88
2023/08/06 08:25:17;;;;;;;6.80;4.47;;;49.80;32.90;;;;;;5074343;28;20091;-87
2023/08/06 08:27:43;;;;;;;13.40;6.00;;;49.60;33.40;;;;;;5074593;28;20108;-85
2023/08/06 08:30:09;;;;;;;11.10;4.35;;;49.70;33.50;;;;;;5076478;28;20016;-88
2023/08/06 08:32:35;;;;;;;5.50;4.00;;;49.90;33.50;;;;;;5083053;28;20114;-86
2023/08/06 08:35:00;;;;;;;11.30;5.38;;;50.40;33.20;;;;;;5061668;28;20151;-86
2023/08/06 08:37:26;;;;;;;12.18;4.45;;;50.20;33.00;;;;;;5081463;28;20025;-88
2023/08/06 08:39:52;;;;;;;13.65;5.00;;;50.10;33.10;;;;;;5075355;28;20016;-88
2023/08/06 08:42:19;;;;;;;8.18;4.30;;;49.30;33.80;;;;;;5051587;28;20020;-83
2023/08/06 08:44:45;;;;;;;8.25;4.60;;;49.30;33.90;;;;;;5086632;28;20029;-88
2023/08/06 08:47:11;;;;;;;13.10;4.57;;;49.30;34.00;;;;;;5094199;28;20016;-89
2023/08/06 08:49:38;;;;;;;9.88;4.32;;;49.30;34.10;;;;;;5068802;28;20135;-86
2023/08/06 08:52:10;;;;;;;13.18;5.03;;;49.60;33.90;;;;;;5069082;28;20025;-88
2023/08/06 08:54:38;;;;;;;10.93;4.85;;;50.20;33.60;;;;;;5075738;28;20035;-86
2023/08/06 08:57:05;;;;;;;13.35;4.60;;;50.80;33.20;;;;;;5079172;28;20033;-87
2023/08/06 08:59:33;;;;;;;6.55;4.53;;;51.60;32.80;;;;;;5060180;28;20569;-87
2023/08/06 09:02:01;;;;;;;7.20;4.03;;;;;;;;;;5079230;28;20028;-88
2023/08/06 09:04:31;;;;;;;11.18;4.85;;;51.90;32.60;;;;;;5051131;28;20024;-86
2023/08/06 09:06:59;;;;;;;6.75;4.53;;;51.90;32.50;;;;;;5057002;28;20040;-87
2023/08/06 09:09:38;;;;;;;10.45;4.75;;;52.10;32.20;;;;;;5060256;28;20083;-87
2023/08/06 09:12:14;;;;;;;12.77;4.30;;;52.10;32.40;;;;;;5051119;28;20566;-87
2023/08/06 09:14:41;;;;;;;15.50;5.05;;;52.00;32.30;;;;;;5043952;28;20419;-89
2023/08/06 09:17:07;;;;;;;9.35;4.70;;;51.90;32.30;;;;;;5057953;28;20028;-88
2023/08/06 09:19:33;;;;;;;11.52;3.97;;;52.10;31.80;;;;;;5087063;28;20072;-87
2023/08/06 09:21:59;;;;;;;7.82;3.88;;;52.10;31.70;;;;;;5069881;28;20020;-88
2023/08/06 09:24:28;;;;;;;8.95;5.25;;;51.90;31.60;;;;;;5078053;28;20063;-88
2023/08/06 09:26:54;;;;;;;10.90;4.57;;;51.80;32.00;;;;;;5077120;28;20351;-85
2023/08/06 09:29:20;;;;;;;7.30;3.85;;;51.50;31.90;;;;;;5074980;28;20048;-88
2023/08/06 09:31:52;;;;;;;12.48;3.97;;;50.80;31.90;;;;;;5059246;28;20025;-88
2023/08/06 09:34:22;;;;;;;11.88;4.68;;;49.00;33.00;;;;;;5078586;28;20029;-89
2023/08/06 09:36:59;;;;;;;9.43;4.13;;;48.40;33.80;;;;;;5058164;28;20109;-87
2023/08/06 09:39:29;;;;;;;11.90;6.25;;;48.20;34.20;;;;;;5067537;28;20493;-90
2023/08/06 09:42:00;;;;;;;9.07;4.97;;;48.50;34.10;;;;;;5077723;28;20028;-90
2023/08/06 09:44:27;;;;;;;10.13;4.55;;;49.30;33.80;;;;;;5078639;28;20025;-90
2023/08/06 09:46:55;;;;;;;5.95;4.20;;;49.60;33.20;;;;;;5072364;28;20017;-90
2023/08/06 09:49:26;;;;;;;15.80;3.83;;;49.40;33.50;;;;;;5061114;28;20056;-90
2023/08/06 09:51:55;;;;;;;8.48;5.43;;;49.20;33.30;;;;;;5063065;28;20023;-89
2023/08/06 09:54:23;;;;;;;10.93;4.70;;;48.50;33.40;;;;;;5088938;28;20509;-87
2023/08/06 09:56:49;;;;;;;8.32;4.32;;;47.60;34.20;;;;;;5063810;28;20025;-86
2023/08/06 09:59:15;;;;;;;9.73;3.90;;;47.90;34.60;;;;;;5044038;28;20021;-86
2023/08/06 10:01:41;;;;;;;12.50;4.65;;;48.20;34.50;;;;;;5058460;28;20025;-82
2023/08/06 10:04:11;;;;;;;11.07;4.40;;;48.10;34.70;;;;;;5074040;28;20583;-85
2023/08/06 10:06:38;;;;;;;7.10;4.40;;;47.90;34.60;;;;;;5074968;28;20424;-86
2023/08/06 10:09:08;;;;;;;5.10;4.38;;;48.10;34.70;;;;;;5075804;28;20025;-90
2023/08/06 10:11:36;;;;;;;8.27;4.38;;;48.20;34.50;;;;;;5059720;28;20040;-87
2023/08/06 10:14:30;;;;;;;10.27;6.43;;;48.70;34.50;;;;;;5084772;28;20064;-88
2023/08/06 10:16:59;;;;;;;4.97;3.90;;;48.70;34.40;;;;;;5049313;28;20061;-86
2023/08/06 10:19:26;;;;;;;6.82;5.15;;;48.20;34.20;;;;;;5076356;28;20021;-88
2023/08/06 10:22:14;;;;;;;6.82;4.20;;;47.00;34.90;;;;;;5069703;28;20019;-87
2023/08/06 10:24:56;;;;;;;11.52;5.40;;;46.30;35.50;;;;;;5043520;28;20108;-88
2023/08/06 10:27:33;;;;;;;7.45;4.25;;;46.40;36.50;;;;;;5071271;28;20025;-87
2023/08/06 10:30:20;;;;;;;9.30;4.78;;;47.10;36.00;;;;;;5086762;28;20079;-86
2023/08/06 10:32:49;;;;;;;5.60;4.40;;;46.40;35.40;;;;;;5054349;28;20045;-89
2023/08/06 10:35:31;;;;;;;11.10;5.25;;;44.20;37.00;;;;;;5054623;28;20407;-87
2023/08/06 10:38:16;;;;;;;10.88;5.07;;;41.80;39.70;;;;;;5046952;28;20478;-88
2023/08/06 10:40:54;;;;;;;13.38;6.38;;;40.20;41.90;;;;;;5059118;28;20517;-86
2023/08/06 10:43:39;;;;;;;8.32;5.50;;;39.20;43.90;;;;;;5071039;28;20116;-84
2023/08/06 10:46:21;;;;;;;14.45;7.35;;;38.30;43.60;;;;;;5050027;28;20482;-84
2023/08/06 10:48:47;;;;;;;18.40;6.70;;;37.40;45.70;;;;;;5054192;28;20039;-85
2023/08/06 10:51:14;;;;;;;16.77;6.35;;;37.00;46.50;;;;;;5050133;28;20013;-84
2023/08/06 10:53:45;;;;;;;13.77;6.20;;;36.60;47.10;;;;;;5072960;28;20055;-84
2023/08/06 10:56:18;;;;;;;10.18;6.07;;;36.30;48.20;;;;;;5070484;28;20036;-83
2023/08/06 10:58:46;;;;;;;10.10;7.47;;;36.10;48.60;;;;;;5074609;28;20138;-86
2023/08/06 11:01:14;;;;;;;13.85;6.97;;;35.80;49.80;;;;;;5048535;28;20031;-86
2023/08/06 11:03:40;;;;;;;8.98;6.00;;;35.50;49.30;;;;;;5083267;28;20054;-90
2023/08/06 11:06:10;;;;;;;16.50;6.40;;;35.30;49.90;;;;;;5070420;28;20021;-90
2023/08/06 11:08:40;;;;;;;10.45;6.50;;;35.20;50.10;;;;;;5046392;28;20041;-89
2023/08/06 11:11:14;;;;;;;10.50;5.72;;;35.20;50.10;;;;;;5060443;28;20052;-87
2023/08/06 11:13:46;;;;;;;27.98;9.02;;;35.10;50.20;;;;;;5066438;28;20106;-89
2023/08/06 11:16:14;;;;;;;13.05;6.70;;;34.80;50.00;;;;;;5068350;28;20025;-89
2023/08/06 11:18:41;;;;;;;8.45;5.90;;;34.70;50.50;;;;;;5090055;28;20016;-93
2023/08/06 11:21:08;;;;;;;12.48;6.45;;;34.60;50.40;;;;;;5076268;28;20044;-91
2023/08/06 11:23:35;;;;;;;16.33;7.65;;;34.40;51.00;;;;;;5086693;28;20032;-88
2023/08/06 11:26:01;;;;;;;8.70;6.20;;;34.20;51.80;;;;;;5059071;28;20530;-88
2023/08/06 11:28:27;;;;;;;7.33;6.00;;;34.20;52.10;;;;;;5108799;28;20024;-88
2023/08/06 11:30:55;;;;;;;8.15;5.93;;;34.00;51.80;;;;;;5063904;28;20135;-90
2023/08/06 11:33:28;;;;;;;11.27;6.50;;;33.70;52.50;;;;;;5051204;28;20145;-91
2023/08/06 11:35:56;;;;;;;10.38;6.50;;;33.60;52.80;;;;;;5039320;28;20486;-90
2023/08/06 11:38:25;;;;;;;7.07;6.05;;;33.30;53.00;;;;;;5080308;28;20088;-91
2023/08/06 11:40:51;;;;;;;11.35;6.85;;;33.10;52.90;;;;;;5058469;28;20028;-90
2023/08/06 11:43:22;;;;;;;7.38;6.68;;;33.20;53.50;;;;;;5074297;28;20012;-89
2023/08/06 11:45:49;;;;;;;17.05;7.10;;;33.30;54.20;;;;;;5045261;28;20029;-91
2023/08/06 11:48:15;;;;;;;9.20;6.18;;;33.40;54.40;;;;;;5061369;28;20033;-88
2023/08/06 11:50:41;;;;;;;11.43;6.77;;;33.60;53.60;;;;;;5088531;28;20119;-88
2023/08/06 11:53:07;;;;;;;7.27;6.53;;;33.50;53.70;;;;;;5072322;28;20037;-90
2023/08/06 11:55:33;;;;;;;10.13;6.93;;;33.50;53.30;;;;;;5060224;28;20016;-88
2023/08/06 11:58:06;;;;;;;9.98;7.32;;;33.40;53.80;;;;;;5070738;28;20023;-92
2023/08/06 12:00:33;;;;;;;6.85;6.15;;;33.40;53.90;;;;;;5055329;28;20029;-90
2023/08/06 12:02:59;;;;;;;13.53;6.20;;;33.50;53.90;;;;;;5064688;28;20021;-90
2023/08/06 12:05:35;;;;;;;13.23;7.53;;;33.50;53.30;;;;;;5073839;28;20353;-92
2023/08/06 12:08:03;;;;;;;9.20;6.45;;;33.40;54.00;;;;;;5056060;28;20021;-91
2023/08/06 12:10:31;;;;;;;9.63;7.22;;;33.40;54.00;;;;;;5055163;28;20120;-93
2023/08/06 12:12:57;;;;;;;13.15;6.82;;;33.30;54.40;;;;;;5076652;28;20047;-91
2023/08/06 12:15:24;;;;;;;9.65;7.00;;;33.10;54.10;;;;;;5051838;28;20028;-90
2023/08/06 12:17:50;;;;;;;13.57;7.82;;;33.20;54.80;;;;;;5033862;28;20041;-87
2023/08/06 12:20:16;;;;;;;14.30;7.18;;;33.40;55.00;;;;;;5052593;28;20064;-87
2023/08/06 12:22:42;;;;;;;12.63;8.37;;;33.50;54.50;;;;;;5044020;28;20379;-89
2023/08/06 12:25:11;;;;;;;10.57;7.20;;;33.60;54.10;;;;;;5077806;28;20017;-90
2023/08/06 12:27:44;;;;;;;11.38;7.07;;;33.50;53.70;;;;;;5072463;28;20079;-88
2023/08/06 12:30:11;;;;;;;21.25;7.72;;;33.60;53.70;;;;;;5083826;28;20389;-88
2023/08/06 12:32:38;;;;;;;15.38;7.28;;;33.60;53.40;;;;;;5059569;28;20105;-88
2023/08/06 12:35:05;;;;;;;8.13;5.82;;;33.40;53.30;;;;;;5065536;28;20027;-87
2023/08/06 12:37:30;;;;;;;11.63;6.38;;;33.30;53.40;;;;;;5057070;28;20048;-90
2023/08/06 12:39:57;;;;;;;12.10;6.30;;;33.10;54.00;;;;;;5067717;28;20036;-86
2023/08/06 12:42:24;;;;;;;10.15;6.25;;;32.90;53.50;;;;;;5041427;28;20029;-89
2023/08/06 12:44:56;;;;;;;11.73;6.43;;;32.80;54.20;;;;;;5094536;28;20041;-90
2023/08/06 12:47:22;;;;;;;12.55;6.75;;;32.70;54.60;;;;;;5063503;28;20013;-92
2023/08/06 12:49:49;;;;;;;10.87;6.40;;;32.70;55.30;;;;;;5082780;28;20012;-91